createdAt,value
2023-03-12T00:04:53.742Z,99372.84
2023-03-12T00:10:26.768Z,99369.58
2023-03-12T00:15:56.093Z,99368.21
2023-03-12T00:21:21.384Z,99364.11
2023-03-12T00:26:27.790Z,99360.85
2023-03-12T00:31:36.496Z,99351.27
2023-03-12T00:36:43.023Z,99345.27
2023-03-12T00:41:53.004Z,99338.77
2023-03-12T00:47:16.648Z,99333.95
2023-03-12T00:52:20.032Z,99338.23
2023-03-12T00:57:26.258Z,99330.70
2023-03-12T01:02:52.265Z,99329.36
2023-03-12T01:08:04.574Z,99328.34
2023-03-12T01:13:08.575Z,99329.88
2023-03-12T01:18:12.171Z,99330.40
2023-03-12T01:23:16.233Z,99323.89
2023-03-12T01:28:53.042Z,99317.20
2023-03-12T01:33:56.782Z,99313.94
2023-03-12T01:39:43.371Z,99305.36
2023-03-12T01:45:07.349Z,99297.98
2023-03-12T01:50:51.580Z,99297.14
2023-03-12T01:56:20.238Z,99294.38
2023-03-12T02:01:44.336Z,99297.45
2023-03-12T02:07:10.472Z,99297.42
2023-03-12T02:12:34.082Z,99303.74
2023-03-12T02:18:29.283Z,99307.33
2023-03-12T02:24:03.253Z,99307.15
2023-03-12T02:29:10.689Z,99306.48
2023-03-12T02:34:24.251Z,99308.20
2023-03-12T02:39:33.681Z,99310.77
2023-03-12T02:44:40.797Z,99305.95
2023-03-12T02:50:36.018Z,99308.52
2023-03-12T02:56:03.048Z,99310.59
2023-03-12T03:01:20.658Z,99306.66
2023-03-12T03:06:41.373Z,99311.13
2023-03-12T03:12:09.499Z,99320.04
2023-03-12T03:17:17.105Z,99318.66
2023-03-12T03:22:22.030Z,99325.50
2023-03-12T03:27:48.763Z,99337.98
2023-03-12T03:33:16.086Z,99342.77
2023-03-12T03:39:06.491Z,99356.13
2023-03-12T03:44:39.578Z,99364.19
2023-03-12T03:50:04.150Z,99371.04
2023-03-12T03:55:39.973Z,99372.59
2023-03-12T04:00:47.670Z,99375.48
2023-03-12T04:06:13.948Z,99375.14
2023-03-12T04:11:39.902Z,99379.25
2023-03-12T04:17:13.443Z,99380.11
2023-03-12T04:23:00.245Z,99380.27
2023-03-12T04:28:13.627Z,99384.20
2023-03-12T04:33:30.202Z,99379.23
2023-03-12T04:38:37.038Z,99386.77
2023-03-12T04:43:54.085Z,99387.45
2023-03-12T04:48:58.305Z,99386.25
2023-03-12T04:54:22.531Z,99384.86
2023-03-12T04:59:36.968Z,99383.83
2023-03-12T05:04:46.199Z,99383.29
2023-03-12T05:09:49.775Z,99388.94
2023-03-12T05:14:55.677Z,99388.08
2023-03-12T05:20:05.255Z,99397.00
2023-03-12T05:25:09.506Z,99403.69
2023-03-12T05:30:13.037Z,99396.49
2023-03-12T05:36:17.125Z,99398.20
2023-03-12T05:41:27.667Z,99406.94
2023-03-12T05:46:40.655Z,99417.20
2023-03-12T05:51:44.746Z,99426.26
2023-03-12T05:57:03.981Z,99414.59
2023-03-12T06:02:10.600Z,99423.51
2023-03-12T06:07:16.648Z,99429.52
2023-03-12T06:12:34.286Z,99429.16
2023-03-12T06:17:57.992Z,99440.64
2023-03-12T06:23:24.699Z,99452.29
2023-03-12T06:28:54.462Z,99455.04
2023-03-12T06:34:47.302Z,99460.35
2023-03-12T06:40:13.220Z,99465.46
2023-03-12T06:45:16.925Z,99466.61
2023-03-12T06:50:33.642Z,99474.45
2023-03-12T06:56:03.495Z,99479.77
2023-03-12T07:01:27.921Z,99486.98
2023-03-12T07:06:51.530Z,99493.80
2023-03-12T07:11:55.393Z,99503.27
2023-03-12T07:17:14.826Z,99507.23
2023-03-12T07:22:24.634Z,99513.89
2023-03-12T07:27:51.696Z,99509.73
2023-03-12T07:33:15.472Z,99509.04
2023-03-12T07:38:22.483Z,99519.52
2023-03-12T07:44:03.392Z,99521.94
2023-03-12T07:49:07.593Z,99526.42
2023-03-12T07:54:25.715Z,99537.40
2023-03-12T07:59:29.583Z,99545.11
2023-03-12T08:04:33.385Z,99549.89
2023-03-12T08:09:40.150Z,99556.60
2023-03-12T08:14:44.011Z,99560.59
2023-03-12T08:19:48.166Z,99567.52
2023-03-12T08:24:51.863Z,99573.44
2023-03-12T08:29:55.644Z,99579.92
2023-03-12T08:35:24.002Z,99586.88
2023-03-12T08:40:28.434Z,99595.09
2023-03-12T08:45:32.717Z,99594.26
2023-03-12T08:50:40.089Z,99599.70
2023-03-12T08:55:45.859Z,99603.00
2023-03-12T09:00:49.479Z,99602.41
2023-03-12T09:06:05.850Z,99605.52
2023-03-12T09:11:14.724Z,99615.70
2023-03-12T09:16:24.800Z,99621.11
2023-03-12T09:21:28.596Z,99627.30
2023-03-12T09:26:32.353Z,99632.02
2023-03-12T09:31:36.665Z,99629.51
2023-03-12T09:37:24.063Z,99637.13
2023-03-12T09:42:43.528Z,99638.83
2023-03-12T09:48:06.623Z,99651.17
2023-03-12T09:54:38.147Z,99649.50
2023-03-12T10:00:08.351Z,99651.47
2023-03-12T10:06:19.768Z,99655.90
2023-03-12T10:11:34.286Z,99660.86
2023-03-12T10:16:51.300Z,99670.27
2023-03-12T10:22:36.869Z,99672.88
2023-03-12T10:28:03.907Z,99675.16
2023-03-12T10:33:16.450Z,99684.86
2023-03-12T10:38:33.209Z,99691.52
2023-03-12T10:44:06.396Z,99690.30
2023-03-12T10:49:34.066Z,99696.31
2023-03-12T10:54:54.402Z,99702.98
2023-03-12T11:00:18.177Z,99699.79
2023-03-12T11:06:10.311Z,99703.85
2023-03-12T11:11:39.169Z,99711.89
2023-03-12T11:17:06.482Z,99716.34
2023-03-12T11:22:16.127Z,99728.48
2023-03-12T11:28:09.876Z,99727.80
2023-03-12T11:33:34.612Z,99730.06
2023-03-12T11:39:13.137Z,99729.77
2023-03-12T11:44:47.072Z,99729.30
2023-03-12T11:56:58.310Z,99740.17
2023-03-12T12:02:32.930Z,99741.09
2023-03-12T12:08:25.369Z,99739.73
2023-03-12T12:22:15.419Z,99740.58
2023-03-12T12:34:34.874Z,99750.06
2023-03-12T12:40:58.620Z,99753.30
2023-03-12T12:46:23.584Z,99768.45
2023-03-12T12:51:43.911Z,99770.88
2023-03-12T12:57:15.420Z,99779.60
2023-03-12T13:02:26.560Z,99796.31
2023-03-12T13:07:52.677Z,99796.98
2023-03-12T13:12:57.503Z,99800.90
2023-03-12T13:18:18.490Z,99806.95
2023-03-12T13:23:44.876Z,99810.21
2023-03-12T13:29:11.874Z,99808.98
2023-03-12T13:34:47.753Z,99811.45
2023-03-12T13:40:46.554Z,99816.27
2023-03-12T13:46:59.330Z,99819.90
2023-03-12T13:52:18.553Z,99822.10
2023-03-12T13:57:41.366Z,99830.08
2023-03-12T14:02:54.118Z,99830.98
2023-03-12T14:08:52.430Z,99834.90
2023-03-12T14:14:26.051Z,99837.24
2023-03-12T14:19:55.290Z,99838.98
2023-03-12T14:25:18.994Z,99845.31
2023-03-12T14:31:21.073Z,99847.04
2023-03-12T14:36:38.240Z,99851.10
2023-03-12T14:42:15.235Z,99847.63
2023-03-12T14:47:24.418Z,99855.64
2023-03-12T14:52:40.274Z,99860.01
2023-03-12T14:58:22.633Z,99854.55
2023-03-12T15:03:29.921Z,99858.56
2023-03-12T15:09:34.204Z,99865.14
2023-03-12T15:15:28.982Z,99869.68
2023-03-12T15:20:57.343Z,99873.85
2023-03-12T15:26:44.571Z,99874.02
2023-03-12T15:32:35.975Z,99878.45
2023-03-12T15:37:51.249Z,99883.42
2023-03-12T15:43:28.989Z,99880.84
2023-03-12T15:49:04.961Z,99891.02
2023-03-12T15:54:33.647Z,99895.34
2023-03-12T16:00:34.479Z,99900.86
2023-03-12T16:05:53.831Z,99906.76
2023-03-12T16:11:40.834Z,99905.10
2023-03-12T16:16:57.010Z,99904.27
2023-03-12T16:22:03.610Z,99906.20
2023-03-12T16:27:17.992Z,99910.89
2023-03-12T16:32:24.502Z,99918.16
2023-03-12T16:37:32.216Z,99924.89
2023-03-12T16:42:36.647Z,99931.65
2023-03-12T16:47:48.494Z,99933.93
2023-03-12T16:52:52.480Z,99934.49
2023-03-12T16:58:21.320Z,99943.66
2023-03-12T17:04:25.183Z,99947.14
2023-03-12T17:10:13.064Z,99957.39
2023-03-12T17:15:21.609Z,99953.64
2023-03-12T17:21:01.134Z,99957.45
2023-03-12T17:26:05.046Z,99960.06
2023-03-12T17:31:09.332Z,99964.04
2023-03-12T17:36:24.008Z,99965.25
2023-03-12T17:41:27.617Z,99977.31
2023-03-12T17:46:34.005Z,99971.45
2023-03-12T17:51:58.684Z,99974.39
2023-03-12T17:57:32.704Z,99977.67
2023-03-12T18:02:48.781Z,99972.54
2023-03-12T18:08:16.670Z,99979.77
2023-03-12T18:13:40.886Z,99989.27
2023-03-12T18:19:17.842Z,99997.35
2023-03-12T18:24:42.318Z,100000.10
2023-03-12T18:30:36.097Z,100006.47
2023-03-12T18:36:03.966Z,100010.95
2023-03-12T18:42:08.505Z,100018.19
2023-03-12T18:47:36.042Z,100025.25
2023-03-12T18:53:40.360Z,100018.36
2023-03-12T18:58:46.888Z,100009.75
2023-03-12T19:04:51.043Z,100003.73
2023-03-12T19:10:03.722Z,99993.25
2023-03-12T19:15:32.699Z,99992.23
2023-03-12T19:20:56.791Z,99993.27
2023-03-12T19:26:43.851Z,99983.11
2023-03-12T19:32:21.968Z,99995.33
2023-03-12T19:37:48.496Z,100008.58
2023-03-12T19:43:10.914Z,100012.17
2023-03-12T19:48:51.042Z,100018.54
2023-03-12T19:54:14.793Z,100024.20
2023-03-12T19:59:41.423Z,100022.66
2023-03-12T20:05:08.076Z,100026.28
2023-03-12T20:10:23.257Z,100028.16
2023-03-12T20:15:48.573Z,100031.44
2023-03-12T20:20:57.923Z,100032.45
2023-03-12T20:26:01.233Z,100026.91
2023-03-12T20:31:30.936Z,100018.46
2023-03-12T20:36:36.731Z,100016.20
2023-03-12T20:41:40.005Z,100013.73
2023-03-12T20:47:03.713Z,99999.09
2023-03-12T20:52:11.584Z,99998.36
2023-03-12T20:57:15.072Z,99999.02
2023-03-12T21:02:21.687Z,99999.48
2023-03-12T21:07:25.060Z,99996.05
2023-03-12T21:12:36.819Z,99986.45
2023-03-12T21:17:42.807Z,99979.42
2023-03-12T21:22:47.503Z,99970.32
2023-03-12T21:28:13.567Z,99973.56
2023-03-12T21:33:30.126Z,99969.61
2023-03-12T21:38:44.644Z,99969.09
2023-03-12T21:43:48.436Z,99971.80
2023-03-12T21:48:54.777Z,99967.84
2023-03-12T21:54:18.441Z,99964.95
2023-03-12T21:59:21.976Z,99963.45
2023-03-12T22:04:28.747Z,99959.02
2023-03-12T22:10:05.508Z,99960.61
2023-03-12T22:15:09.815Z,99958.39
2023-03-12T22:20:13.436Z,99958.74
2023-03-12T22:25:37.018Z,99947.92
2023-03-12T22:30:43.900Z,99950.48
2023-03-12T22:35:50.840Z,99947.41
2023-03-12T22:40:56.953Z,99937.95
2023-03-12T22:46:11.173Z,99943.61
2023-03-12T22:51:17.763Z,99934.02
2023-03-12T22:56:31.574Z,99930.27
2023-03-12T23:02:38.290Z,99923.74
2023-03-12T23:08:11.959Z,99918.10
2023-03-12T23:14:04.557Z,99912.79
2023-03-12T23:19:11.582Z,99905.05
2023-03-12T23:24:19.355Z,99901.44
2023-03-12T23:29:23.055Z,99907.12
2023-03-12T23:34:34.572Z,99908.50
2023-03-12T23:39:58.525Z,99887.18
2023-03-12T23:45:22.333Z,99871.52
2023-03-12T23:50:25.498Z,99888.37
2023-03-12T23:56:25.795Z,99884.23
